Search for airport 
image banner adimage banner adimage banner ad
image banner ad

7NV8 - Geyser Ranch

Located in Ely/Pioche, United States

ICAO - 7NV8, IATA -

Data provided by Airmate  

General information

Coordinates: N38°39'51" W114°37'56"
Elevation is 5977 feet MSL.
Magnetic variation is 15° East
View others Airports in Nevada

Operational data

Special qualification required
Current time UTC:
Current local time:
Weather at : KELY - Ely Arpt /Yelland Fld/ ( 73 km )
METAR: KELY 130153Z AUTO 23008KT 10SM CLR 29/M09 A3007 RMK AO2 SLP086 T02891094 $
TAF: KELY 122329Z 1223/1324 VRB06KT P6SM SKC FM130400 17010KT P6SM SKC FM131800 17015G25KT P6SM SKC
View NOTAMs / SUP AIP / TFR affecting this airport [VIEW]
Communications frequencies: [VIEW]

Runways:

RWY identifierQFULength (ft)Width (ft)SurfaceLDA (ft)
17445060EARTH
35445060EARTH

Airport contact information

Address: Ely/Pioche United States

Satellite view of 7NV8